createdAt,value
2019-05-06T00:00:05.644Z,1011.98
2019-05-06T00:01:05.633Z,1011.89
2019-05-06T00:02:05.639Z,1011.91
2019-05-06T00:03:05.610Z,1011.94
2019-05-06T00:04:05.610Z,1011.90
2019-05-06T00:05:05.590Z,1011.97
2019-05-06T00:06:05.578Z,1011.96
2019-05-06T00:07:05.580Z,1011.98
2019-05-06T00:08:05.556Z,1011.97
2019-05-06T00:09:05.547Z,1012.03
2019-05-06T00:10:05.858Z,1012.00
2019-05-06T00:11:05.523Z,1012.03
2019-05-06T00:12:05.522Z,1012.00
2019-05-06T00:13:05.511Z,1011.99
2019-05-06T00:14:05.490Z,1011.98
2019-05-06T00:15:05.479Z,1012.01
2019-05-06T00:16:05.468Z,1012.00
2019-05-06T00:17:05.466Z,1012.05
2019-05-06T00:18:05.448Z,1012.00
2019-05-06T00:19:05.435Z,1012.04
2019-05-06T00:20:05.430Z,1012.02
2019-05-06T00:21:05.413Z,1011.98
2019-05-06T00:22:05.430Z,1012.00
2019-05-06T00:23:05.393Z,1012.05
2019-05-06T00:24:05.382Z,1012.00
2019-05-06T00:25:05.496Z,1012.00
2019-05-06T00:26:05.359Z,1011.91
2019-05-06T00:27:05.348Z,1011.98
2019-05-06T00:28:06.159Z,1011.96
2019-05-06T00:29:05.326Z,1011.97
2019-05-06T00:30:05.316Z,1011.90
2019-05-06T00:31:12.845Z,1012.00
2019-05-06T00:32:06.313Z,1012.03
2019-05-06T00:33:05.292Z,1011.91
2019-05-06T00:34:05.271Z,1011.96
2019-05-06T00:35:05.261Z,1011.98
2019-05-06T00:36:05.250Z,1011.94
2019-05-06T00:37:05.239Z,1011.91
2019-05-06T00:38:05.237Z,1011.94
2019-05-06T00:39:05.221Z,1011.92
2019-05-06T00:40:05.204Z,1011.94
2019-05-06T00:41:05.200Z,1011.92
2019-05-06T00:42:05.188Z,1011.98
2019-05-06T00:43:05.182Z,1012.01
2019-05-06T00:44:05.161Z,1011.96
2019-05-06T00:45:05.149Z,1011.98
2019-05-06T00:46:05.140Z,1012.04
2019-05-06T00:47:05.129Z,1012.03
2019-05-06T00:48:05.159Z,1012.06
2019-05-06T00:49:05.107Z,1012.00
2019-05-06T00:50:05.095Z,1011.96
2019-05-06T00:51:05.084Z,1012.02
2019-05-06T00:52:05.075Z,1011.99
2019-05-06T00:53:05.077Z,1012.02
2019-05-06T00:54:05.055Z,1011.96
2019-05-06T00:55:05.041Z,1012.00
2019-05-06T00:56:05.032Z,1012.02
2019-05-06T00:57:05.046Z,1011.98
2019-05-06T00:58:05.018Z,1012.02
2019-05-06T00:59:05.010Z,1011.98
2019-05-06T01:00:04.986Z,1012.02
2019-05-06T01:01:04.978Z,1011.98
2019-05-06T01:02:04.963Z,1011.95
2019-05-06T01:03:04.953Z,1011.97
2019-05-06T01:04:04.952Z,1011.98
2019-05-06T01:05:04.931Z,1012.00
2019-05-06T01:06:04.924Z,1012.00
2019-05-06T01:07:04.911Z,1011.98
2019-05-06T01:08:04.898Z,1012.04
2019-05-06T01:09:04.896Z,1012.04
2019-05-06T01:10:04.878Z,1012.04
2019-05-06T01:11:04.867Z,1012.03
2019-05-06T01:12:04.855Z,1012.09
2019-05-06T01:13:04.843Z,1012.10
2019-05-06T01:14:04.841Z,1012.12
2019-05-06T01:15:04.823Z,1012.10
2019-05-06T01:16:04.811Z,1012.11
2019-05-06T01:17:04.799Z,1012.12
2019-05-06T01:18:04.791Z,1012.12
2019-05-06T01:19:04.864Z,1012.09
2019-05-06T01:20:04.767Z,1012.11
2019-05-06T01:21:04.755Z,1012.14
2019-05-06T01:22:04.780Z,1012.14
2019-05-06T01:23:04.736Z,1012.20
2019-05-06T01:24:04.732Z,1012.17
2019-05-06T01:25:04.713Z,1012.16
2019-05-06T01:26:04.701Z,1012.14
2019-05-06T01:27:04.690Z,1012.15
2019-05-06T01:28:04.680Z,1012.16
2019-05-06T01:29:04.682Z,1012.15
2019-05-06T01:30:04.659Z,1012.16
2019-05-06T01:31:04.646Z,1012.18
2019-05-06T01:32:04.635Z,1012.21
2019-05-06T01:33:04.624Z,1012.22
2019-05-06T01:34:04.621Z,1012.19
2019-05-06T01:35:04.824Z,1012.21
2019-05-06T01:36:04.639Z,1012.25
2019-05-06T01:37:04.580Z,1012.27
2019-05-06T01:38:04.569Z,1012.27
2019-05-06T01:39:04.571Z,1012.26
2019-05-06T01:40:04.546Z,1012.24
2019-05-06T01:41:04.538Z,1012.31
2019-05-06T01:42:04.602Z,1012.30
2019-05-06T01:43:04.514Z,1012.25
2019-05-06T01:44:04.515Z,1012.28
2019-05-06T01:45:04.780Z,1012.26
2019-05-06T01:46:04.764Z,1012.27
2019-05-06T01:47:04.474Z,1012.29
2019-05-06T01:48:04.462Z,1012.27
2019-05-06T01:49:04.486Z,1012.32
2019-05-06T01:50:04.575Z,1012.33
2019-05-06T01:51:04.428Z,1012.30
2019-05-06T01:52:04.423Z,1012.36
2019-05-06T01:53:04.973Z,1012.37
2019-05-06T01:54:04.400Z,1012.34
2019-05-06T01:55:04.869Z,1012.38
2019-05-06T01:56:04.374Z,1012.40
2019-05-06T01:57:04.702Z,1012.38
2019-05-06T01:58:05.096Z,1012.38
2019-05-06T01:59:04.734Z,1012.35
2019-05-06T02:00:04.881Z,1012.35
2019-05-06T02:01:04.323Z,1012.35
2019-05-06T02:02:04.539Z,1012.34
2019-05-06T02:03:04.297Z,1012.33
2019-05-06T02:04:04.623Z,1012.36
2019-05-06T02:05:04.829Z,1012.39
2019-05-06T02:06:04.848Z,1012.34
2019-05-06T02:07:04.253Z,1012.37
2019-05-06T02:08:04.250Z,1012.39
2019-05-06T02:09:04.661Z,1012.40
2019-05-06T02:10:04.229Z,1012.37
2019-05-06T02:11:04.217Z,1012.41
2019-05-06T02:12:04.714Z,1012.42
2019-05-06T02:13:04.191Z,1012.38
2019-05-06T02:14:04.897Z,1012.43
2019-05-06T02:15:04.214Z,1012.39
2019-05-06T02:16:04.153Z,1012.40
2019-05-06T02:17:04.143Z,1012.44
2019-05-06T02:18:04.311Z,1012.42
2019-05-06T02:19:04.361Z,1012.37
2019-05-06T02:20:04.314Z,1012.38
2019-05-06T02:21:05.420Z,1012.38
2019-05-06T02:22:04.360Z,1012.41
2019-05-06T02:23:04.280Z,1012.40
2019-05-06T02:24:04.320Z,1012.42
2019-05-06T02:25:04.581Z,1012.42
2019-05-06T02:26:04.875Z,1012.39
2019-05-06T02:27:04.509Z,1012.41
2019-05-06T02:28:04.109Z,1012.41
2019-05-06T02:29:04.347Z,1012.42
2019-05-06T02:30:05.534Z,1012.46
2019-05-06T02:31:05.338Z,1012.45
2019-05-06T02:32:17.114Z,1012.49
2019-05-06T02:33:04.968Z,1012.48
2019-05-06T02:34:05.105Z,1012.45
2019-05-06T02:35:05.139Z,1012.48
2019-05-06T02:36:06.484Z,1012.43
2019-05-06T02:37:06.299Z,1012.48
2019-05-06T02:38:04.808Z,1012.47
2019-05-06T02:39:03.906Z,1012.45
2019-05-06T02:40:04.416Z,1012.43
2019-05-06T02:41:03.935Z,1012.38
2019-05-06T02:42:04.217Z,1012.47
2019-05-06T02:43:03.872Z,1012.44
2019-05-06T02:44:03.907Z,1012.44
2019-05-06T02:45:04.223Z,1012.37
2019-05-06T02:46:04.457Z,1012.38
2019-05-06T02:47:03.818Z,1012.41
2019-05-06T02:48:04.627Z,1012.46
2019-05-06T02:49:03.991Z,1012.43
2019-05-06T02:50:04.726Z,1012.42
2019-05-06T02:51:04.092Z,1012.50
2019-05-06T02:52:03.762Z,1012.47
2019-05-06T02:53:03.759Z,1012.49
2019-05-06T02:54:03.747Z,1012.48
2019-05-06T02:55:06.384Z,1012.41
2019-05-06T02:56:04.296Z,1012.52
2019-05-06T02:57:04.405Z,1012.55
2019-05-06T02:58:03.703Z,1012.54
2019-05-06T02:59:04.094Z,1012.56
2019-05-06T03:00:05.094Z,1012.51
2019-05-06T03:01:04.041Z,1012.48
2019-05-06T03:02:03.772Z,1012.53
2019-05-06T03:03:03.638Z,1012.50
2019-05-06T03:04:04.600Z,1012.51
2019-05-06T03:05:04.406Z,1012.54
2019-05-06T03:06:04.286Z,1012.61
2019-05-06T03:07:03.970Z,1012.59
2019-05-06T03:08:03.589Z,1012.63
2019-05-06T03:09:03.575Z,1012.54
2019-05-06T03:10:04.110Z,1012.60
2019-05-06T03:11:04.297Z,1012.59
2019-05-06T03:12:04.026Z,1012.60
2019-05-06T03:13:03.534Z,1012.60
2019-05-06T03:14:03.592Z,1012.62
2019-05-06T03:15:03.633Z,1012.60
2019-05-06T03:16:05.770Z,1012.60
2019-05-06T03:17:03.887Z,1012.62
2019-05-06T03:18:03.483Z,1012.55
2019-05-06T03:19:04.294Z,1012.53
2019-05-06T03:20:04.356Z,1012.53
2019-05-06T03:21:04.047Z,1012.54
2019-05-06T03:22:03.589Z,1012.59
2019-05-06T03:23:03.863Z,1012.57
2019-05-06T03:24:07.452Z,1012.56
2019-05-06T03:25:06.399Z,1012.63
2019-05-06T03:26:06.396Z,1012.53
2019-05-06T03:27:04.455Z,1012.56
2019-05-06T03:28:04.143Z,1012.57
2019-05-06T03:29:03.396Z,1012.58
2019-05-06T03:30:04.140Z,1012.60
2019-05-06T03:31:06.897Z,1012.61
2019-05-06T03:32:06.739Z,1012.59
2019-05-06T03:34:27.753Z,1012.60
2019-05-06T03:35:25.790Z,1012.53
2019-05-06T03:36:15.373Z,1012.61
2019-05-06T03:37:07.257Z,1012.63
2019-05-06T03:38:03.970Z,1012.63
2019-05-06T03:39:03.257Z,1012.69
2019-05-06T03:40:03.318Z,1012.60
2019-05-06T03:41:03.368Z,1012.58
2019-05-06T03:42:04.526Z,1012.63
2019-05-06T03:43:03.217Z,1012.60
2019-05-06T03:44:03.469Z,1012.58
2019-05-06T03:45:04.136Z,1012.60
2019-05-06T03:46:04.277Z,1012.69
2019-05-06T03:47:05.668Z,1012.62
2019-05-06T03:48:05.962Z,1012.65
2019-05-06T03:49:03.820Z,1012.66
2019-05-06T03:50:04.600Z,1012.74
2019-05-06T03:51:04.060Z,1012.70
2019-05-06T03:52:03.165Z,1012.65
2019-05-06T03:53:03.411Z,1012.67
2019-05-06T03:54:03.410Z,1012.60
2019-05-06T03:55:03.855Z,1012.61
2019-05-06T03:56:03.538Z,1012.62
2019-05-06T03:57:03.256Z,1012.59
2019-05-06T03:58:03.818Z,1012.60
2019-05-06T03:59:03.032Z,1012.63
2019-05-06T04:00:04.642Z,1012.64
2019-05-06T04:01:03.693Z,1012.70
2019-05-06T04:02:05.313Z,1012.64
2019-05-06T04:03:03.293Z,1012.69
2019-05-06T04:04:03.714Z,1012.68
2019-05-06T04:05:04.012Z,1012.71
2019-05-06T04:06:04.500Z,1012.66
2019-05-06T04:07:03.535Z,1012.70
2019-05-06T04:08:03.864Z,1012.69
2019-05-06T04:09:03.581Z,1012.71
2019-05-06T04:10:03.808Z,1012.70
2019-05-06T04:11:03.254Z,1012.74
2019-05-06T04:12:03.589Z,1012.73
2019-05-06T04:13:04.097Z,1012.72
2019-05-06T04:14:02.966Z,1012.71
2019-05-06T04:15:04.078Z,1012.65
2019-05-06T04:16:03.716Z,1012.70
2019-05-06T04:17:03.408Z,1012.74
2019-05-06T04:18:03.839Z,1012.70
2019-05-06T04:19:04.131Z,1012.75
2019-05-06T04:20:03.989Z,1012.80
2019-05-06T04:21:03.759Z,1012.68
2019-05-06T04:22:03.665Z,1012.76
2019-05-06T04:23:05.975Z,1012.71
2019-05-06T04:24:04.073Z,1012.71
2019-05-06T04:25:04.061Z,1012.73
2019-05-06T04:26:03.568Z,1012.70
2019-05-06T04:27:03.242Z,1012.75
2019-05-06T04:28:03.075Z,1012.73
2019-05-06T04:29:03.860Z,1012.81
2019-05-06T04:30:04.696Z,1012.73
2019-05-06T04:31:02.849Z,1012.77
2019-05-06T04:32:03.462Z,1012.78
2019-05-06T04:33:03.294Z,1012.76
2019-05-06T04:34:12.639Z,1012.76
2019-05-06T04:35:04.425Z,1012.79
2019-05-06T04:36:03.609Z,1012.83
2019-05-06T04:37:03.507Z,1012.81
2019-05-06T04:38:03.120Z,1012.86
2019-05-06T04:39:04.097Z,1012.85
2019-05-06T04:40:04.503Z,1012.94
2019-05-06T04:41:03.065Z,1012.98
2019-05-06T04:42:03.450Z,1012.93
2019-05-06T04:43:03.550Z,1012.98
2019-05-06T04:44:02.998Z,1012.92
2019-05-06T04:45:04.560Z,1013.00
2019-05-06T04:46:03.083Z,1013.01
2019-05-06T04:47:05.064Z,1012.98
2019-05-06T04:48:03.543Z,1012.98
2019-05-06T04:49:03.967Z,1013.02
2019-05-06T04:50:04.915Z,1012.97
2019-05-06T04:51:03.285Z,1012.98
2019-05-06T04:52:03.592Z,1013.00
2019-05-06T04:53:04.959Z,1013.03
2019-05-06T04:54:04.198Z,1013.01
2019-05-06T04:55:03.367Z,1012.96
2019-05-06T04:56:03.879Z,1013.03
2019-05-06T04:57:04.993Z,1013.00
2019-05-06T04:58:04.042Z,1013.00
2019-05-06T04:59:05.747Z,1012.98
2019-05-06T05:00:04.197Z,1013.04
2019-05-06T05:01:04.085Z,1013.03
2019-05-06T05:02:02.755Z,1013.01
2019-05-06T05:03:02.995Z,1013.11
2019-05-06T05:04:03.561Z,1013.06
2019-05-06T05:05:04.085Z,1013.02
2019-05-06T05:06:05.640Z,1013.04
2019-05-06T05:07:03.372Z,1013.01
2019-05-06T05:08:02.532Z,1013.01
2019-05-06T05:09:03.006Z,1013.00
2019-05-06T05:10:03.512Z,1013.05
2019-05-06T05:11:03.552Z,1013.09
2019-05-06T05:12:02.838Z,1013.06
2019-05-06T05:13:03.543Z,1012.99
2019-05-06T05:14:02.930Z,1012.99
2019-05-06T05:15:03.272Z,1013.05
2019-05-06T05:16:02.410Z,1013.04
2019-05-06T05:17:02.383Z,1013.01
2019-05-06T05:18:03.196Z,1012.99
2019-05-06T05:19:02.771Z,1013.04
2019-05-06T05:20:02.273Z,1013.00
2019-05-06T05:21:02.513Z,1012.99
2019-05-06T05:22:02.845Z,1013.05
2019-05-06T05:23:02.330Z,1012.98
2019-05-06T05:24:02.194Z,1012.98
2019-05-06T05:25:03.423Z,1013.07
2019-05-06T05:26:02.908Z,1012.97
2019-05-06T05:27:03.163Z,1013.01
2019-05-06T05:28:02.230Z,1013.02
2019-05-06T05:29:02.814Z,1012.94
2019-05-06T05:30:02.252Z,1013.02
2019-05-06T05:31:03.065Z,1013.01
2019-05-06T05:32:02.246Z,1013.05
2019-05-06T05:33:02.627Z,1013.03
2019-05-06T05:34:02.246Z,1012.99
2019-05-06T05:35:02.217Z,1012.98
2019-05-06T05:36:02.227Z,1012.95
2019-05-06T05:37:03.032Z,1012.97
2019-05-06T05:38:03.070Z,1013.00
2019-05-06T05:39:03.321Z,1012.97
2019-05-06T05:40:03.014Z,1013.02
2019-05-06T05:41:03.068Z,1013.00
2019-05-06T05:42:02.966Z,1013.02
2019-05-06T05:43:02.876Z,1012.99
2019-05-06T05:44:02.422Z,1013.06
2019-05-06T05:45:02.687Z,1013.01
2019-05-06T05:46:02.933Z,1013.02
2019-05-06T05:47:03.459Z,1013.00
2019-05-06T05:48:02.860Z,1013.04
2019-05-06T05:49:02.856Z,1013.14
2019-05-06T05:50:03.032Z,1013.12
2019-05-06T05:51:03.350Z,1013.10
2019-05-06T05:52:03.390Z,1013.16
2019-05-06T05:53:02.453Z,1013.03
2019-05-06T05:54:02.304Z,1013.05
2019-05-06T05:55:02.721Z,1013.11
2019-05-06T05:56:02.557Z,1013.14
2019-05-06T05:57:02.402Z,1013.11
2019-05-06T05:58:03.232Z,1013.04
2019-05-06T05:59:03.341Z,1013.09
2019-05-06T06:00:03.905Z,1013.04
2019-05-06T06:01:03.994Z,1013.11
2019-05-06T06:02:03.835Z,1013.06
2019-05-06T06:03:02.942Z,1013.05
2019-05-06T06:04:03.039Z,1013.01
2019-05-06T06:05:02.512Z,1013.07
2019-05-06T06:06:03.043Z,1013.08
2019-05-06T06:07:02.654Z,1013.07
2019-05-06T06:08:02.910Z,1013.09
2019-05-06T06:09:03.151Z,1013.08
2019-05-06T06:10:02.679Z,1013.07
2019-05-06T06:11:04.129Z,1013.09
2019-05-06T06:12:02.745Z,1013.08
2019-05-06T06:13:02.166Z,1013.14
2019-05-06T06:14:02.974Z,1013.13
2019-05-06T06:15:02.249Z,1013.07
2019-05-06T06:16:02.885Z,1013.08
2019-05-06T06:17:02.015Z,1013.09
2019-05-06T06:18:03.002Z,1013.13
2019-05-06T06:19:03.194Z,1013.06
2019-05-06T06:20:02.651Z,1013.04
2019-05-06T06:21:17.072Z,1013.11
2019-05-06T06:22:02.796Z,1013.10
2019-05-06T06:23:02.928Z,1013.05
2019-05-06T06:24:02.779Z,1013.04
2019-05-06T06:25:04.254Z,1013.10
2019-05-06T06:26:03.948Z,1013.04
2019-05-06T06:27:03.055Z,1013.02
2019-05-06T06:28:02.676Z,1013.06
2019-05-06T06:29:03.287Z,1013.07
2019-05-06T06:30:02.419Z,1013.10
2019-05-06T06:31:03.044Z,1013.07
2019-05-06T06:32:03.112Z,1013.06
2019-05-06T06:33:02.547Z,1013.08
2019-05-06T06:34:01.994Z,1013.13
2019-05-06T06:35:10.824Z,1013.10
2019-05-06T06:36:02.851Z,1013.11
2019-05-06T06:37:02.585Z,1013.04
2019-05-06T06:38:02.738Z,1013.09
2019-05-06T06:39:02.153Z,1013.09
2019-05-06T06:40:02.572Z,1013.07
2019-05-06T06:41:02.715Z,1013.11
2019-05-06T06:42:02.844Z,1013.07
2019-05-06T06:43:02.171Z,1013.10
2019-05-06T06:44:02.280Z,1013.08
2019-05-06T06:45:03.538Z,1013.09
2019-05-06T06:46:02.518Z,1013.08
2019-05-06T06:47:02.065Z,1013.10
2019-05-06T06:48:03.153Z,1013.03
2019-05-06T06:49:03.103Z,1013.07
2019-05-06T06:50:02.763Z,1013.06
2019-05-06T06:51:03.290Z,1013.04
2019-05-06T06:52:02.801Z,1013.07
2019-05-06T06:53:03.091Z,1013.06
2019-05-06T06:54:02.510Z,1013.08
2019-05-06T06:55:02.339Z,1013.06
2019-05-06T06:56:02.053Z,1013.11
2019-05-06T06:57:06.125Z,1013.10
2019-05-06T06:58:02.683Z,1013.12
2019-05-06T06:59:02.587Z,1013.11
2019-05-06T07:00:03.884Z,1013.02
2019-05-06T07:01:03.154Z,1013.01
2019-05-06T07:02:02.736Z,1013.09
2019-05-06T07:03:02.729Z,1013.05
2019-05-06T07:04:04.686Z,1013.09
2019-05-06T07:05:02.477Z,1013.05
2019-05-06T07:06:02.364Z,1013.09
2019-05-06T07:07:02.937Z,1013.01
2019-05-06T07:08:02.179Z,1013.01
2019-05-06T07:09:02.709Z,1013.08
2019-05-06T07:10:02.700Z,1013.01
2019-05-06T07:11:02.224Z,1013.08
2019-05-06T07:12:03.320Z,1012.98
2019-05-06T07:13:02.944Z,1012.96
2019-05-06T07:14:02.643Z,1013.01
2019-05-06T07:15:02.349Z,1013.00
2019-05-06T07:16:02.911Z,1012.96
2019-05-06T07:17:02.467Z,1012.99
2019-05-06T07:18:02.314Z,1012.97
2019-05-06T07:19:02.963Z,1012.95
2019-05-06T07:20:02.865Z,1013.05
2019-05-06T07:21:04.119Z,1013.00
2019-05-06T07:22:02.830Z,1013.01
2019-05-06T07:23:01.940Z,1012.97
2019-05-06T07:24:02.144Z,1013.02
2019-05-06T07:25:03.735Z,1013.02
2019-05-06T07:26:02.842Z,1013.03
2019-05-06T07:27:02.892Z,1012.97
2019-05-06T07:28:02.814Z,1012.92
2019-05-06T07:29:03.937Z,1012.96
2019-05-06T07:30:02.982Z,1012.93
2019-05-06T07:31:14.907Z,1012.97
2019-05-06T07:32:02.628Z,1012.92
2019-05-06T07:33:03.461Z,1012.93
2019-05-06T07:34:02.511Z,1012.92
2019-05-06T07:35:02.218Z,1012.91
2019-05-06T07:36:02.157Z,1012.92
2019-05-06T07:37:03.254Z,1012.94
2019-05-06T07:38:02.378Z,1012.93
2019-05-06T07:39:04.125Z,1012.96
2019-05-06T07:40:02.885Z,1012.96
2019-05-06T07:41:04.184Z,1012.89
2019-05-06T07:42:02.476Z,1012.95
2019-05-06T07:43:02.285Z,1012.91
2019-05-06T07:44:02.150Z,1012.94
2019-05-06T07:45:06.134Z,1012.92
2019-05-06T07:46:02.547Z,1012.95
2019-05-06T07:47:03.355Z,1012.94
2019-05-06T07:48:00.505Z,1012.98
2019-05-06T07:49:03.006Z,1013.03
2019-05-06T07:50:02.415Z,1012.96
2019-05-06T07:51:02.882Z,1012.93
2019-05-06T07:52:02.743Z,1012.95
2019-05-06T07:53:02.365Z,1012.87
2019-05-06T07:54:02.649Z,1013.02
2019-05-06T07:55:02.380Z,1012.97
2019-05-06T07:56:03.490Z,1012.90
2019-05-06T07:57:02.407Z,1012.92
2019-05-06T07:58:02.394Z,1012.89
2019-05-06T07:59:00.382Z,1012.87
2019-05-06T08:00:03.128Z,1012.91
2019-05-06T08:01:02.721Z,1013.00
2019-05-06T08:02:02.299Z,1013.02
2019-05-06T08:03:02.428Z,1012.89
2019-05-06T08:04:02.507Z,1013.02
2019-05-06T08:05:02.425Z,1013.00
2019-05-06T08:06:02.517Z,1012.95
2019-05-06T08:07:00.294Z,1012.93
2019-05-06T08:08:00.282Z,1012.95
2019-05-06T08:09:00.271Z,1012.96
2019-05-06T08:10:02.195Z,1012.95
2019-05-06T08:11:02.488Z,1012.97
2019-05-06T08:12:02.643Z,1012.94
2019-05-06T08:13:02.498Z,1012.85
2019-05-06T08:14:02.201Z,1012.93
2019-05-06T08:15:04.464Z,1012.93
2019-05-06T08:16:02.258Z,1012.94
2019-05-06T08:17:02.277Z,1012.90
2019-05-06T08:18:00.174Z,1012.80
2019-05-06T08:19:00.164Z,1012.82
2019-05-06T08:20:02.520Z,1012.91
2019-05-06T08:21:02.357Z,1012.83
2019-05-06T08:22:00.128Z,1012.80
2019-05-06T08:23:02.000Z,1012.81
2019-05-06T08:24:00.111Z,1012.80
2019-05-06T08:25:00.103Z,1012.89
2019-05-06T08:26:10.110Z,1012.94
2019-05-06T08:27:02.900Z,1013.00
2019-05-06T08:28:02.248Z,1013.04
2019-05-06T08:29:00.050Z,1012.99
2019-05-06T08:30:02.435Z,1013.06
2019-05-06T08:31:02.230Z,1012.98
2019-05-06T08:32:00.021Z,1012.88
2019-05-06T08:33:01.799Z,1012.98
2019-05-06T08:33:59.996Z,1012.97
2019-05-06T08:34:59.985Z,1013.00
2019-05-06T08:36:10.519Z,1012.98
2019-05-06T08:37:02.461Z,1012.93
2019-05-06T08:37:59.952Z,1012.95
2019-05-06T08:38:59.959Z,1012.83
2019-05-06T08:39:59.930Z,1012.92
2019-05-06T08:40:59.927Z,1012.94
2019-05-06T08:42:02.666Z,1012.85
2019-05-06T08:43:02.061Z,1013.03
2019-05-06T08:44:02.352Z,1012.98
2019-05-06T08:45:02.083Z,1013.03
2019-05-06T08:45:59.887Z,1012.87
2019-05-06T08:46:59.854Z,1012.91
2019-05-06T08:47:59.842Z,1012.96
2019-05-06T08:48:59.833Z,1012.85
2019-05-06T08:50:02.196Z,1012.82
2019-05-06T08:50:59.829Z,1012.81
2019-05-06T08:52:02.230Z,1012.86
2019-05-06T08:52:59.788Z,1012.88
2019-05-06T08:53:59.783Z,1012.84
2019-05-06T08:55:02.277Z,1012.80
2019-05-06T08:56:01.885Z,1012.82
2019-05-06T08:56:59.744Z,1012.88
2019-05-06T08:57:59.733Z,1012.91
2019-05-06T08:58:59.724Z,1012.94
2019-05-06T08:59:59.714Z,1012.92
2019-05-06T09:00:59.711Z,1012.91
2019-05-06T09:01:59.687Z,1012.80
2019-05-06T09:02:59.677Z,1012.83
2019-05-06T09:04:09.541Z,1012.82
2019-05-06T09:05:02.974Z,1012.82
2019-05-06T09:05:59.676Z,1012.85
2019-05-06T09:06:59.633Z,1012.84
2019-05-06T09:07:59.623Z,1012.84
2019-05-06T09:08:59.615Z,1012.76
2019-05-06T09:09:59.605Z,1012.76
2019-05-06T09:10:59.590Z,1012.76
2019-05-06T09:11:59.592Z,1012.73
2019-05-06T09:13:01.924Z,1012.71
2019-05-06T09:13:59.559Z,1012.70
2019-05-06T09:14:59.545Z,1012.68
2019-05-06T09:15:59.537Z,1012.65
2019-05-06T09:16:59.550Z,1012.68
2019-05-06T09:17:59.513Z,1012.66
2019-05-06T09:18:59.508Z,1012.68
2019-05-06T09:19:59.492Z,1012.66
2019-05-06T09:20:59.480Z,1012.67
2019-05-06T09:21:59.478Z,1012.73
2019-05-06T09:22:59.461Z,1012.63
2019-05-06T09:23:59.449Z,1012.71
2019-05-06T09:24:59.436Z,1012.69
2019-05-06T09:25:59.432Z,1012.82
2019-05-06T09:26:59.421Z,1012.76
2019-05-06T09:27:59.404Z,1012.75
2019-05-06T09:28:59.393Z,1012.67
2019-05-06T09:29:59.380Z,1012.67
2019-05-06T09:30:59.370Z,1012.63
2019-05-06T09:31:59.372Z,1012.68
2019-05-06T09:32:59.347Z,1012.60
2019-05-06T09:33:59.380Z,1012.63
2019-05-06T09:34:59.327Z,1012.61
2019-05-06T09:35:59.346Z,1012.56
2019-05-06T09:36:59.394Z,1012.62
2019-05-06T09:37:59.297Z,1012.60
2019-05-06T09:38:59.282Z,1012.64
2019-05-06T09:39:59.276Z,1012.63
2019-05-06T09:40:59.260Z,1012.51
2019-05-06T09:41:59.303Z,1012.53
2019-05-06T09:42:59.241Z,1012.58
2019-05-06T09:43:59.227Z,1012.59
2019-05-06T09:44:59.222Z,1012.52
2019-05-06T09:45:59.205Z,1012.52
2019-05-06T09:46:59.204Z,1012.49
2019-05-06T09:47:59.184Z,1012.49
2019-05-06T09:48:59.173Z,1012.48
2019-05-06T09:49:59.162Z,1012.53
2019-05-06T09:50:59.167Z,1012.55
2019-05-06T09:51:59.150Z,1012.54
2019-05-06T09:52:59.128Z,1012.53
2019-05-06T09:54:01.549Z,1012.50
2019-05-06T09:54:59.128Z,1012.49
2019-05-06T09:55:59.104Z,1012.48
2019-05-06T09:56:59.126Z,1012.55
2019-05-06T09:57:59.074Z,1012.52
2019-05-06T09:58:59.063Z,1012.55
2019-05-06T09:59:59.051Z,1012.70
2019-05-06T10:00:59.045Z,1012.40
2019-05-06T10:01:59.041Z,1012.41
2019-05-06T10:02:59.029Z,1012.42
2019-05-06T10:03:59.007Z,1012.75
2019-05-06T10:04:59.001Z,1012.50
2019-05-06T10:05:58.989Z,1012.45
2019-05-06T10:07:00.069Z,1012.44
2019-05-06T10:07:58.975Z,1012.31
2019-05-06T10:08:58.955Z,1012.36
2019-05-06T10:09:58.943Z,1012.38
2019-05-06T10:10:59.877Z,1012.36
2019-05-06T10:11:58.919Z,1012.33
2019-05-06T10:12:58.922Z,1012.40
2019-05-06T10:13:58.900Z,1012.37
2019-05-06T10:14:58.888Z,1012.35
2019-05-06T10:15:58.879Z,1012.37
2019-05-06T10:16:58.869Z,1012.33
2019-05-06T10:17:58.863Z,1012.34
2019-05-06T10:18:58.871Z,1012.40
2019-05-06T10:19:58.832Z,1012.37
2019-05-06T10:20:58.821Z,1012.41
2019-05-06T10:21:58.813Z,1012.77
2019-05-06T10:22:58.808Z,1012.78
2019-05-06T10:23:58.830Z,1012.68
2019-05-06T10:24:58.802Z,1012.79
2019-05-06T10:25:58.767Z,1012.74
2019-05-06T10:26:58.754Z,1012.73
2019-05-06T10:27:58.754Z,1012.76
2019-05-06T10:28:58.733Z,1012.57
2019-05-06T10:29:58.723Z,1012.42
2019-05-06T10:30:58.711Z,1012.50
2019-05-06T10:31:58.699Z,1012.48
2019-05-06T10:32:58.700Z,1012.41
2019-05-06T10:33:58.688Z,1012.50
2019-05-06T10:34:58.669Z,1012.40
2019-05-06T10:35:58.657Z,1012.40
2019-05-06T10:37:11.509Z,1012.51
2019-05-06T10:37:59.649Z,1012.69
2019-05-06T10:38:58.626Z,1012.75
2019-05-06T10:39:58.615Z,1012.74
2019-05-06T10:41:04.068Z,1012.81
2019-05-06T10:41:59.607Z,1012.82
2019-05-06T10:42:58.596Z,1012.78
2019-05-06T10:43:58.578Z,1012.61
2019-05-06T10:44:59.393Z,1012.79
2019-05-06T10:46:01.185Z,1012.88
2019-05-06T10:46:59.568Z,1012.58
2019-05-06T10:47:58.559Z,1012.45
2019-05-06T10:48:58.516Z,1012.74
2019-05-06T10:49:58.506Z,1012.77
2019-05-06T10:50:58.498Z,1012.49
2019-05-06T10:51:58.504Z,1012.70
2019-05-06T10:52:58.479Z,1012.69
2019-05-06T10:53:58.478Z,1012.41
2019-05-06T10:54:58.469Z,1012.40
2019-05-06T10:55:58.443Z,1012.35
2019-05-06T10:56:58.434Z,1012.37
2019-05-06T10:57:58.422Z,1012.29
2019-05-06T10:58:58.419Z,1012.30
2019-05-06T10:59:58.402Z,1012.28
2019-05-06T11:00:58.389Z,1012.33
2019-05-06T11:01:58.377Z,1012.32
2019-05-06T11:02:58.370Z,1012.54
2019-05-06T11:03:58.367Z,1012.37
2019-05-06T11:04:58.352Z,1012.40
2019-05-06T11:05:58.337Z,1012.45
2019-05-06T11:06:58.323Z,1012.31
2019-05-06T11:07:58.316Z,1012.30
2019-05-06T11:08:58.317Z,1012.24
2019-05-06T11:09:58.292Z,1012.20
2019-05-06T11:11:12.449Z,1012.19
2019-05-06T11:11:59.289Z,1012.24
2019-05-06T11:12:58.259Z,1012.20
2019-05-06T11:13:58.264Z,1012.15
2019-05-06T11:14:58.238Z,1012.22
2019-05-06T11:15:58.232Z,1012.21
2019-05-06T11:16:58.215Z,1012.27
2019-05-06T11:17:58.206Z,1012.27
2019-05-06T11:18:58.204Z,1012.21
2019-05-06T11:19:58.185Z,1012.14
2019-05-06T11:20:58.171Z,1012.12
2019-05-06T11:21:58.162Z,1012.11
2019-05-06T11:22:58.166Z,1012.07
2019-05-06T11:23:58.183Z,1012.09
2019-05-06T11:24:58.127Z,1012.15
2019-05-06T11:25:58.117Z,1012.06
2019-05-06T11:26:58.105Z,1012.09
2019-05-06T11:27:58.095Z,1012.09
2019-05-06T11:28:58.084Z,1012.12
2019-05-06T11:29:58.085Z,1012.07
2019-05-06T11:30:58.063Z,1012.12
2019-05-06T11:31:58.053Z,1012.23
2019-05-06T11:32:58.043Z,1012.27
2019-05-06T11:33:58.030Z,1012.38
2019-05-06T11:34:58.062Z,1012.38
2019-05-06T11:35:58.007Z,1012.37
2019-05-06T11:36:57.998Z,1012.37
2019-05-06T11:37:57.986Z,1012.47
2019-05-06T11:38:57.974Z,1012.44
2019-05-06T11:39:57.972Z,1012.40
2019-05-06T11:40:57.955Z,1012.25
2019-05-06T11:42:15.275Z,1012.29
2019-05-06T11:42:58.944Z,1012.26
2019-05-06T11:43:57.921Z,1012.26
2019-05-06T11:44:57.918Z,1012.24
2019-05-06T11:45:57.898Z,1012.17
2019-05-06T11:46:57.919Z,1012.27
2019-05-06T11:47:57.876Z,1012.25
2019-05-06T11:48:57.863Z,1012.21
2019-05-06T11:49:57.864Z,1012.19
2019-05-06T11:50:57.842Z,1012.18
2019-05-06T11:51:57.831Z,1012.21
2019-05-06T11:52:57.853Z,1012.15
2019-05-06T11:53:57.810Z,1012.13
2019-05-06T11:54:57.817Z,1012.14
2019-05-06T11:55:57.790Z,1012.11
2019-05-06T11:56:58.597Z,1012.06
2019-05-06T11:57:57.768Z,1012.11
2019-05-06T11:58:57.754Z,1012.09
2019-05-06T11:59:57.754Z,1012.09
2019-05-06T12:00:57.756Z,1012.09
2019-05-06T12:01:57.739Z,1012.08
2019-05-06T12:02:57.713Z,1012.03
2019-05-06T12:03:57.708Z,1012.00
2019-05-06T12:04:57.732Z,1012.05
2019-05-06T12:05:57.677Z,1012.01